Chestnut Dale, North Carolina
Current Conditions -  °F | °C
As of 2:55 PM on Tuesday 21 Oct 2014 (Local Time) from KTNB Reporting Station
Scattered Clouds Scattered Clouds  
Wind Chill: 55°   Ceiling: Unl
Heat Index: 55°   Visibility: 10mi
Dew Point: 38°   Wind: 9mph
Humidity: 54%   Direction: 300°WNW
Pressure: 29.95"   Gusts: 20mph
Location:  36.0227°N, 81.9499°W
Report Text: KTNB 211855Z AUTO 30008G17KT 270V330 10SM SCT050 13/03 A2995 RMK AO2 T01250034
Loading
Personal Weather Stations






























Interactive Weather Map New forecast layout! Learn more

10-Day Weather Forecast

Advertisements
Track Severe Weather on mobile